Etusivu
METAR-TAF:

METAR-TAF

Lentoasemat :

Cambridge, Englanti

Leveyspiiri: 52-12N, Pituuspiiri: 000-11E, korkeus merenpinnasta: 15 m

Tämänhetkinen sää

Tämä raportti tehtiin 11 tuntia ja 55 minuuttia sitten, kello 16.50 UTC
Tuuli 11 kn etelästä/kaakosta
Lämpötila 26°C
Kosteus 51%
Ilmanpaine 1022 hPa
Näkyvyys 10 km tai enemmän
Muutamia pilviä 4800 ft:n korkeudessa

METAR: EGSC 231650Z 16011KT 9999 FEW048 26/15 Q1022

Aika: 05:45 (04:45 UTC)

Sääennuste

Tämä raportti tehtiin 14 tuntia ja 40 minuuttia sitten, kello 14.05 UTC
Ennuste voimassa 23. päivästä klo 15 UTC - 23. päivään klo 19 UTC
Tuuli 6 kn etelästä
Näkyvyys 10 km tai enemmän
Muutamia pilviä 4500 ft:n korkeudessa

TAF: EGSC 231405Z 2315/2319 17006KT 9999 FEW045

Säähavainnot ja -ennusteet yli 4000 lentoasemalta (METAR- ja TAF-raportit).

Käytössä olevat sääasemat on merkitty karttaan keltaisilla ja punaisilla pisteillä.

Aseta hiiri pisteen päälle nähdäksesi sääaseman nimen.

Klikkaa sitten nähdäksesi säähavainnot ja -ennusteet.

Kartan vaihtaminen: klikkaa mustalla rastilla varustettuja vihreitä pisteitä, niin voit zoomata sisään; viivalla varustettua vihreää pistettä, niin voit zoomata ulos tai vihreitä nuolia, niin pääset viereisille kartoille.


METAR-TAF: